createdAt,value
2022-10-11T00:01:17.882Z,94633.00
2022-10-11T00:03:44.859Z,94633.00
2022-10-11T00:06:11.791Z,94634.00
2022-10-11T00:08:38.692Z,94627.00
2022-10-11T00:11:10.315Z,94621.00
2022-10-11T00:13:39.583Z,94624.00
2022-10-11T00:16:11.755Z,94622.00
2022-10-11T00:18:39.305Z,94624.00
2022-10-11T00:21:10.289Z,94627.00
2022-10-11T00:23:40.070Z,94636.00
2022-10-11T00:26:09.798Z,94629.00
2022-10-11T00:28:37.960Z,94626.00
2022-10-11T00:31:11.295Z,94631.00
2022-10-11T00:33:40.794Z,94631.00
2022-10-11T00:36:09.692Z,94632.00
2022-10-11T00:38:41.621Z,94632.00
2022-10-11T00:41:11.336Z,94633.00
2022-10-11T00:43:41.389Z,94631.00
2022-10-11T00:46:27.959Z,94635.00
2022-10-11T00:49:05.179Z,94637.00
2022-10-11T00:51:42.867Z,94635.00
2022-10-11T00:54:14.226Z,94629.00
2022-10-11T00:56:44.359Z,94633.00
2022-10-11T00:59:17.840Z,94629.00
2022-10-11T01:01:45.016Z,94627.00
2022-10-11T01:04:12.022Z,94631.00
2022-10-11T01:06:39.935Z,94620.00
2022-10-11T01:09:07.405Z,94620.00
2022-10-11T01:11:38.343Z,94628.00
2022-10-11T01:14:52.418Z,94625.00
2022-10-11T01:17:41.408Z,94625.00
2022-10-11T01:20:54.812Z,94627.00
2022-10-11T01:23:50.125Z,94619.00
2022-10-11T01:27:18.717Z,94630.00
2022-10-11T01:29:54.877Z,94626.00
2022-10-11T01:32:34.350Z,94629.00
2022-10-11T01:35:19.275Z,94632.00
2022-10-11T01:38:03.601Z,94631.00
2022-10-11T01:40:47.154Z,94626.00
2022-10-11T01:43:17.235Z,94629.00
2022-10-11T01:45:45.956Z,94627.00
2022-10-11T01:48:13.917Z,94624.00
2022-10-11T01:50:48.183Z,94631.00
2022-10-11T01:53:55.026Z,94628.00
2022-10-11T01:57:14.700Z,94630.00
2022-10-11T01:59:44.633Z,94634.00
2022-10-11T02:02:48.029Z,94632.00
2022-10-11T02:05:20.014Z,94631.00
2022-10-11T02:08:09.569Z,94629.00
2022-10-11T02:10:59.331Z,94632.00
2022-10-11T02:13:39.392Z,94624.00
2022-10-11T02:16:12.791Z,94618.00
2022-10-11T02:18:48.014Z,94615.00
2022-10-11T02:21:19.934Z,94616.00
2022-10-11T02:24:06.168Z,94615.00
2022-10-11T02:26:34.767Z,94613.00
2022-10-11T02:29:09.777Z,94617.00
2022-10-11T02:31:39.697Z,94612.00
2022-10-11T02:34:22.330Z,94610.00
2022-10-11T02:37:12.293Z,94605.00
2022-10-11T02:39:57.381Z,94609.00
2022-10-11T02:42:32.776Z,94598.00
2022-10-11T02:45:10.205Z,94608.00
2022-10-11T02:47:40.265Z,94608.00
2022-10-11T02:50:12.134Z,94617.00
2022-10-11T02:52:39.030Z,94607.00
2022-10-11T02:55:07.017Z,94609.00
2022-10-11T02:57:33.997Z,94609.00
2022-10-11T03:00:00.997Z,94614.00
2022-10-11T03:02:27.882Z,94621.00
2022-10-11T03:04:54.776Z,94621.00
2022-10-11T03:07:23.906Z,94627.00
2022-10-11T03:09:50.860Z,94622.00
2022-10-11T03:12:17.751Z,94626.00
2022-10-11T03:14:48.674Z,94611.00
2022-10-11T03:17:35.099Z,94620.00
2022-10-11T03:20:02.676Z,94623.00
2022-10-11T03:22:29.578Z,94628.00
2022-10-11T03:24:59.766Z,94620.00
2022-10-11T03:27:30.506Z,94625.00
2022-10-11T03:29:57.785Z,94630.00
2022-10-11T03:32:24.807Z,94624.00
2022-10-11T03:34:51.659Z,94625.00
2022-10-11T03:37:23.586Z,94630.00
2022-10-11T03:39:52.933Z,94625.00
2022-10-11T03:42:22.135Z,94623.00
2022-10-11T03:44:52.051Z,94629.00
2022-10-11T03:47:19.309Z,94637.00
2022-10-11T03:49:47.536Z,94633.00
2022-10-11T03:52:16.966Z,94631.00
2022-10-11T03:54:46.811Z,94625.00
2022-10-11T03:57:16.169Z,94641.00
2022-10-11T03:59:45.534Z,94630.00
2022-10-11T04:02:12.481Z,94633.00
2022-10-11T04:04:42.416Z,94640.00
2022-10-11T04:07:09.722Z,94634.00
2022-10-11T04:09:37.885Z,94628.00
2022-10-11T04:12:10.346Z,94625.00
2022-10-11T04:14:40.524Z,94617.00
2022-10-11T04:17:12.421Z,94628.00
2022-10-11T04:19:39.300Z,94623.00
2022-10-11T04:22:07.766Z,94622.00
2022-10-11T04:24:34.804Z,94629.00
2022-10-11T04:27:04.224Z,94626.00
2022-10-11T04:29:32.712Z,94639.00
2022-10-11T04:32:00.083Z,94637.00
2022-10-11T04:34:27.030Z,94637.00
2022-10-11T04:36:56.120Z,94640.00
2022-10-11T04:39:25.558Z,94645.00
2022-10-11T04:41:55.878Z,94640.00
2022-10-11T04:44:22.851Z,94645.00
2022-10-11T04:47:07.718Z,94648.00
2022-10-11T04:49:48.770Z,94651.00
2022-10-11T04:52:16.040Z,94649.00
2022-10-11T04:54:46.635Z,94647.00
2022-10-11T04:57:13.674Z,94651.00
2022-10-11T04:59:40.963Z,94648.00
2022-10-11T05:02:08.110Z,94656.00
2022-10-11T05:04:37.817Z,94656.00
2022-10-11T05:07:06.535Z,94666.00
2022-10-11T05:09:33.695Z,94664.00
2022-10-11T05:12:03.648Z,94667.00
2022-10-11T05:14:33.167Z,94663.00
2022-10-11T05:17:00.285Z,94662.00
2022-10-11T05:19:27.433Z,94665.00
2022-10-11T05:21:57.852Z,94660.00
2022-10-11T05:24:29.514Z,94674.00
2022-10-11T05:27:03.184Z,94671.00
2022-10-11T05:29:35.683Z,94663.00
2022-10-11T05:32:48.920Z,94676.00
2022-10-11T05:35:16.072Z,94666.00
2022-10-11T05:38:01.546Z,94669.00
2022-10-11T05:46:39.620Z,94672.00
2022-10-11T05:49:09.175Z,94676.00
2022-10-11T05:51:37.526Z,94679.00
2022-10-11T05:54:09.346Z,94683.00
2022-10-11T05:56:36.281Z,94674.00
2022-10-11T05:59:05.030Z,94679.00
2022-10-11T06:01:32.252Z,94683.00
2022-10-11T06:04:01.937Z,94672.00
2022-10-11T06:06:28.928Z,94690.00
2022-10-11T06:08:58.400Z,94695.00
2022-10-11T06:11:27.653Z,94681.00
2022-10-11T06:13:58.754Z,94691.00
2022-10-11T06:16:25.944Z,94697.00
2022-10-11T06:18:54.703Z,94697.00
2022-10-11T06:21:22.929Z,94700.00
2022-10-11T06:23:51.338Z,94696.00
2022-10-11T06:26:19.491Z,94698.00
2022-10-11T06:28:46.814Z,94695.00
2022-10-11T06:31:14.441Z,94708.00
2022-10-11T06:33:41.458Z,94716.00
2022-10-11T06:36:16.943Z,94702.00
2022-10-11T06:38:46.609Z,94712.00
2022-10-11T06:41:26.933Z,94697.00
2022-10-11T06:43:54.448Z,94705.00
2022-10-11T06:46:27.422Z,94710.00
2022-10-11T06:48:59.021Z,94715.00
2022-10-11T06:51:30.106Z,94726.00
2022-10-11T06:53:59.694Z,94718.00
2022-10-11T06:56:30.406Z,94721.00
2022-10-11T06:59:03.679Z,94723.00
2022-10-11T07:01:30.858Z,94721.00
2022-10-11T07:04:01.391Z,94723.00
2022-10-11T07:06:30.571Z,94729.00
2022-10-11T07:09:00.795Z,94730.00
2022-10-11T07:11:28.765Z,94699.00
2022-10-11T07:14:07.826Z,94724.00
2022-10-11T07:16:38.296Z,94719.00
2022-10-11T07:19:07.799Z,94733.00
2022-10-11T07:21:37.408Z,94729.00
2022-10-11T07:24:04.809Z,94731.00
2022-10-11T07:26:38.785Z,94730.00
2022-10-11T07:29:11.843Z,94725.00
2022-10-11T07:31:42.445Z,94720.00
2022-10-11T07:34:10.551Z,94727.00
2022-10-11T07:36:40.250Z,94733.00
2022-10-11T07:39:08.886Z,94737.00
2022-10-11T07:41:44.653Z,94735.00
2022-10-11T07:44:13.270Z,94734.00
2022-10-11T07:46:40.323Z,94727.00
2022-10-11T07:49:07.325Z,94730.00
2022-10-11T07:51:34.593Z,94704.00
2022-10-11T07:54:07.004Z,94735.00
2022-10-11T07:56:37.593Z,94725.00
2022-10-11T07:59:05.207Z,94741.00
2022-10-11T08:01:33.651Z,94733.00
2022-10-11T08:04:00.930Z,94734.00
2022-10-11T08:06:32.633Z,94743.00
2022-10-11T08:09:01.527Z,94727.00
2022-10-11T08:11:38.443Z,94741.00
2022-10-11T08:14:09.191Z,94743.00
2022-10-11T08:16:40.881Z,94750.00
2022-10-11T08:19:07.970Z,94751.00
2022-10-11T08:21:35.060Z,94759.00
2022-10-11T08:24:05.739Z,94751.00
2022-10-11T08:26:34.118Z,94763.00
2022-10-11T08:29:03.585Z,94758.00
2022-10-11T08:31:32.879Z,94759.00
2022-10-11T08:33:59.902Z,94756.00
2022-10-11T08:36:27.011Z,94748.00
2022-10-11T08:38:53.972Z,94762.00
2022-10-11T08:41:43.275Z,94757.00
2022-10-11T08:45:09.580Z,94764.00
2022-10-11T08:47:43.216Z,94761.00
2022-10-11T08:50:20.895Z,94768.00
2022-10-11T08:53:05.108Z,94768.00
2022-10-11T08:55:45.201Z,94760.00
2022-10-11T08:58:17.668Z,94767.00
2022-10-11T09:00:55.410Z,94756.00
2022-10-11T09:03:40.426Z,94757.00
2022-10-11T09:06:23.821Z,94757.00
2022-10-11T09:09:01.722Z,94762.00
2022-10-11T09:12:16.850Z,94750.00
2022-10-11T09:15:20.866Z,94758.00
2022-10-11T09:17:59.926Z,94759.00
2022-10-11T09:20:40.449Z,94756.00
2022-10-11T09:23:34.658Z,94753.00
2022-10-11T09:26:23.082Z,94763.00
2022-10-11T09:29:01.320Z,94754.00
2022-10-11T09:31:29.892Z,94762.00
2022-10-11T09:34:06.265Z,94759.00
2022-10-11T09:37:18.327Z,94761.00
2022-10-11T09:40:01.439Z,94758.00
2022-10-11T09:42:28.532Z,94760.00
2022-10-11T09:44:57.463Z,94750.00
2022-10-11T09:47:33.248Z,94754.00
2022-10-11T09:50:12.656Z,94753.00
2022-10-11T09:53:02.196Z,94757.00
2022-10-11T09:55:50.362Z,94754.00
2022-10-11T09:58:31.910Z,94757.00
2022-10-11T10:01:07.871Z,94751.00
2022-10-11T10:03:42.057Z,94761.00
2022-10-11T10:06:28.860Z,94752.00
2022-10-11T10:09:26.735Z,94756.00
2022-10-11T10:11:55.521Z,94747.00
2022-10-11T10:14:30.677Z,94743.00
2022-10-11T10:17:06.497Z,94743.00
2022-10-11T10:19:48.458Z,94745.00
2022-10-11T10:22:22.738Z,94752.00
2022-10-11T10:24:53.818Z,94734.00
2022-10-11T10:27:28.302Z,94745.00
2022-10-11T10:30:13.203Z,94743.00
2022-10-11T10:33:04.831Z,94733.00
2022-10-11T10:35:33.329Z,94731.00
2022-10-11T10:38:49.877Z,94736.00
2022-10-11T10:41:19.752Z,94739.00
2022-10-11T10:43:55.401Z,94747.00
2022-10-11T10:46:47.158Z,94749.00
2022-10-11T10:49:48.861Z,94739.00
2022-10-11T10:53:03.260Z,94738.00
2022-10-11T10:55:45.154Z,94728.00
2022-10-11T10:58:21.524Z,94737.00
2022-10-11T11:01:06.238Z,94734.00
2022-10-11T11:03:42.567Z,94727.00
2022-10-11T11:06:26.493Z,94723.00
2022-10-11T11:09:14.732Z,94722.00
2022-10-11T11:12:34.584Z,94724.00
2022-10-11T11:15:35.553Z,94722.00
2022-10-11T11:18:07.669Z,94721.00
2022-10-11T11:20:56.201Z,94718.00
2022-10-11T11:23:33.006Z,94711.00
2022-10-11T11:26:37.122Z,94716.00
2022-10-11T11:29:29.065Z,94718.00
2022-10-11T11:32:11.006Z,94715.00
2022-10-11T11:34:47.988Z,94710.00
2022-10-11T11:37:25.681Z,94711.00
2022-10-11T11:39:58.229Z,94705.00
2022-10-11T11:42:42.370Z,94701.00
2022-10-11T11:45:24.560Z,94704.00
2022-10-11T11:48:10.518Z,94702.00
2022-10-11T11:50:46.033Z,94699.00
2022-10-11T11:53:25.327Z,94705.00
2022-10-11T11:56:07.926Z,94703.00
2022-10-11T11:58:46.649Z,94706.00
2022-10-11T12:01:47.384Z,94710.00
2022-10-11T12:04:35.352Z,94700.00
2022-10-11T12:07:16.786Z,94706.00
2022-10-11T12:09:52.136Z,94705.00
2022-10-11T12:12:34.183Z,94704.00
2022-10-11T12:15:10.174Z,94702.00
2022-10-11T12:17:59.190Z,94698.00
2022-10-11T12:20:41.814Z,94700.00
2022-10-11T12:23:52.119Z,94707.00
2022-10-11T12:26:36.265Z,94695.00
2022-10-11T12:29:25.916Z,94684.00
2022-10-11T12:32:01.493Z,94688.00
2022-10-11T12:37:25.096Z,94682.00
2022-10-11T12:39:59.765Z,94680.00
2022-10-11T12:43:23.926Z,94690.00
2022-10-11T12:45:53.437Z,94678.00
2022-10-11T12:48:41.730Z,94688.00
2022-10-11T12:51:17.573Z,94688.00
2022-10-11T12:54:29.112Z,94679.00
2022-10-11T12:57:11.892Z,94689.00
2022-10-11T12:59:44.983Z,94680.00
2022-10-11T13:02:42.699Z,94677.00
2022-10-11T13:05:31.592Z,94685.00
2022-10-11T13:08:05.627Z,94669.00
2022-10-11T13:10:43.920Z,94671.00
2022-10-11T13:13:53.607Z,94685.00
2022-10-11T13:16:28.648Z,94677.00
2022-10-11T13:19:03.897Z,94679.00
2022-10-11T13:21:36.686Z,94676.00
2022-10-11T13:24:17.521Z,94673.00
2022-10-11T13:26:51.699Z,94678.00
2022-10-11T13:29:19.823Z,94678.00
2022-10-11T13:31:48.400Z,94657.00
2022-10-11T13:34:18.621Z,94666.00
2022-10-11T13:36:47.994Z,94669.00
2022-10-11T13:39:31.772Z,94668.00
2022-10-11T13:42:01.441Z,94667.00
2022-10-11T13:44:28.510Z,94673.00
2022-10-11T13:46:55.463Z,94673.00
2022-10-11T13:49:47.637Z,94690.00
2022-10-11T13:52:24.887Z,94666.00
2022-10-11T13:55:23.630Z,94683.00
2022-10-11T13:57:55.919Z,94670.00
2022-10-11T14:00:35.514Z,94671.00
2022-10-11T14:03:16.423Z,94668.00
2022-10-11T14:05:56.107Z,94666.00
2022-10-11T14:08:38.846Z,94663.00
2022-10-11T14:11:09.747Z,94670.00
2022-10-11T14:13:44.586Z,94661.00
2022-10-11T14:16:13.777Z,94671.00
2022-10-11T14:18:48.787Z,94665.00
2022-10-11T14:21:45.911Z,94664.00
2022-10-11T14:24:17.815Z,94667.00
2022-10-11T14:26:48.824Z,94664.00
2022-10-11T14:29:33.971Z,94672.00
2022-10-11T14:32:30.705Z,94672.00
2022-10-11T14:34:58.267Z,94662.00
2022-10-11T14:37:25.573Z,94670.00
2022-10-11T14:39:55.200Z,94671.00
2022-10-11T14:42:25.033Z,94671.00
2022-10-11T14:44:52.212Z,94667.00
2022-10-11T14:47:19.139Z,94665.00
2022-10-11T14:49:45.982Z,94668.00
2022-10-11T14:52:14.358Z,94660.00
2022-10-11T14:54:41.542Z,94665.00
2022-10-11T14:57:11.929Z,94669.00
2022-10-11T14:59:39.130Z,94660.00
2022-10-11T15:02:08.844Z,94667.00
2022-10-11T15:04:38.280Z,94666.00
2022-10-11T15:07:05.414Z,94671.00
2022-10-11T15:09:32.546Z,94666.00
2022-10-11T15:12:04.210Z,94663.00
2022-10-11T15:14:34.102Z,94670.00
2022-10-11T15:17:03.126Z,94665.00
2022-10-11T15:19:30.026Z,94660.00
2022-10-11T15:21:56.948Z,94665.00
2022-10-11T15:24:23.920Z,94659.00
2022-10-11T15:26:50.831Z,94669.00
2022-10-11T15:29:24.209Z,94667.00
2022-10-11T15:31:53.186Z,94668.00
2022-10-11T15:34:20.106Z,94671.00
2022-10-11T15:36:47.073Z,94672.00
2022-10-11T15:39:33.650Z,94658.00
2022-10-11T15:42:00.588Z,94664.00
2022-10-11T15:44:29.894Z,94667.00
2022-10-11T15:46:56.745Z,94654.00
2022-10-11T15:49:23.610Z,94661.00
2022-10-11T15:51:50.520Z,94668.00
2022-10-11T15:54:17.372Z,94667.00
2022-10-11T15:56:44.291Z,94677.00
2022-10-11T15:59:11.757Z,94671.00
2022-10-11T16:01:41.725Z,94666.00
2022-10-11T16:04:09.462Z,94677.00
2022-10-11T16:06:38.651Z,94671.00
2022-10-11T16:09:05.742Z,94670.00
2022-10-11T16:11:35.106Z,94682.00
2022-10-11T16:14:04.518Z,94671.00
2022-10-11T16:16:31.371Z,94678.00
2022-10-11T16:18:58.180Z,94674.00
2022-10-11T16:21:27.467Z,94675.00
2022-10-11T16:23:56.401Z,94679.00
2022-10-11T16:26:25.338Z,94672.00
2022-10-11T16:28:56.580Z,94671.00
2022-10-11T16:31:23.830Z,94683.00
2022-10-11T16:33:52.835Z,94683.00
2022-10-11T16:36:31.946Z,94685.00
2022-10-11T16:39:16.898Z,94693.00
2022-10-11T16:41:44.416Z,94685.00
2022-10-11T16:44:18.245Z,94694.00
2022-10-11T16:46:49.077Z,94681.00
2022-10-11T16:49:22.511Z,94684.00
2022-10-11T16:51:51.930Z,94695.00
2022-10-11T16:54:20.816Z,94689.00
2022-10-11T16:56:49.838Z,94696.00
2022-10-11T16:59:17.456Z,94700.00
2022-10-11T17:01:47.155Z,94700.00
2022-10-11T17:04:14.179Z,94689.00
2022-10-11T17:06:43.809Z,94700.00
2022-10-11T17:09:10.949Z,94701.00
2022-10-11T17:11:40.645Z,94700.00
2022-10-11T17:14:07.691Z,94701.00
2022-10-11T17:16:37.768Z,94702.00
2022-10-11T17:19:05.123Z,94692.00
2022-10-11T17:21:32.054Z,94700.00
2022-10-11T17:23:59.089Z,94696.00
2022-10-11T17:26:29.526Z,94697.00
2022-10-11T17:29:00.868Z,94701.00
2022-10-11T17:31:29.646Z,94698.00
2022-10-11T17:33:59.784Z,94701.00
2022-10-11T17:36:34.721Z,94681.00
2022-10-11T17:39:08.057Z,94698.00
2022-10-11T17:41:38.425Z,94702.00
2022-10-11T17:44:10.551Z,94699.00
2022-10-11T17:46:41.567Z,94700.00
2022-10-11T17:49:09.012Z,94704.00
2022-10-11T17:51:58.216Z,94711.00
2022-10-11T17:57:27.426Z,94713.00
2022-10-11T18:00:11.473Z,94713.00
2022-10-11T18:02:44.599Z,94716.00
2022-10-11T18:05:17.824Z,94722.00
2022-10-11T18:08:06.167Z,94685.00
2022-10-11T18:10:47.697Z,94719.00
2022-10-11T18:16:24.690Z,94705.00
2022-10-11T18:19:00.110Z,94705.00
2022-10-11T18:21:34.272Z,94710.00
2022-10-11T18:31:48.886Z,94718.00
2022-10-11T18:34:28.121Z,94705.00
2022-10-11T18:37:20.340Z,94681.00
2022-10-11T18:39:48.855Z,94711.00
2022-10-11T18:42:25.944Z,94705.00
2022-10-11T18:45:00.903Z,94720.00
2022-10-11T18:47:31.917Z,94713.00
2022-10-11T18:50:06.377Z,94703.00
2022-10-11T18:52:44.358Z,94711.00
2022-10-11T18:55:26.788Z,94716.00
2022-10-11T18:58:04.292Z,94720.00
2022-10-11T19:00:40.514Z,94720.00
2022-10-11T19:03:11.549Z,94720.00
2022-10-11T19:05:50.733Z,94721.00
2022-10-11T19:08:27.813Z,94715.00
2022-10-11T19:13:48.840Z,94725.00
2022-10-11T19:16:49.460Z,94674.00
2022-10-11T19:19:32.942Z,94727.00
2022-10-11T19:22:10.666Z,94727.00
2022-10-11T19:27:48.077Z,94696.00
2022-10-11T19:30:17.344Z,94724.00
2022-10-11T19:36:20.156Z,94723.00
2022-10-11T19:38:49.692Z,94729.00
2022-10-11T19:41:20.576Z,94726.00
2022-10-11T19:43:58.197Z,94719.00
2022-10-11T19:49:26.016Z,94718.00
2022-10-11T19:54:55.782Z,94723.00
2022-10-11T19:57:49.765Z,94717.00
2022-10-11T20:00:17.137Z,94720.00
2022-10-11T20:02:49.366Z,94720.00
2022-10-11T20:05:16.383Z,94720.00
2022-10-11T20:07:46.270Z,94722.00
2022-10-11T20:10:13.112Z,94720.00
2022-10-11T20:12:45.730Z,94718.00
2022-10-11T20:15:12.874Z,94730.00
2022-10-11T20:17:48.894Z,94724.00
2022-10-11T20:20:17.717Z,94727.00
2022-10-11T20:22:49.389Z,94731.00
2022-10-11T20:25:16.395Z,94726.00
2022-10-11T20:27:47.877Z,94728.00
2022-10-11T20:30:14.795Z,94719.00
2022-10-11T20:32:44.019Z,94720.00
2022-10-11T20:35:10.907Z,94723.00
2022-10-11T20:37:42.334Z,94717.00
2022-10-11T20:40:10.024Z,94728.00
2022-10-11T20:42:39.962Z,94727.00
2022-10-11T20:45:07.679Z,94716.00
2022-10-11T20:47:34.946Z,94721.00
2022-10-11T20:50:02.098Z,94720.00
2022-10-11T20:52:31.418Z,94733.00
2022-10-11T20:55:01.425Z,94727.00
2022-10-11T20:57:28.282Z,94714.00
2022-10-11T20:59:56.355Z,94722.00
2022-10-11T21:02:23.282Z,94721.00
2022-10-11T21:04:55.094Z,94723.00
2022-10-11T21:07:24.049Z,94714.00
2022-10-11T21:09:51.205Z,94719.00
2022-10-11T21:12:20.176Z,94718.00
2022-10-11T21:14:49.602Z,94717.00
2022-10-11T21:17:19.189Z,94718.00
2022-10-11T21:19:50.752Z,94724.00
2022-10-11T21:22:17.636Z,94720.00
2022-10-11T21:24:44.502Z,94719.00
2022-10-11T21:27:13.867Z,94712.00
2022-10-11T21:29:40.676Z,94697.00
2022-10-11T21:32:14.134Z,94712.00
2022-10-11T21:34:41.298Z,94705.00
2022-10-11T21:37:10.546Z,94703.00
2022-10-11T21:39:37.406Z,94703.00
2022-10-11T21:42:04.278Z,94705.00
2022-10-11T21:44:32.792Z,94702.00
2022-10-11T21:47:07.202Z,94699.00
2022-10-11T21:49:34.575Z,94706.00
2022-10-11T21:52:01.570Z,94693.00
2022-10-11T21:54:28.455Z,94698.00
2022-10-11T21:57:00.032Z,94700.00
2022-10-11T21:59:26.860Z,94703.00
2022-10-11T22:02:01.510Z,94704.00
2022-10-11T22:04:30.943Z,94699.00
2022-10-11T22:07:00.523Z,94701.00
2022-10-11T22:09:29.657Z,94695.00
2022-10-11T22:11:59.458Z,94704.00
2022-10-11T22:14:26.770Z,94701.00
2022-10-11T22:16:53.669Z,94701.00
2022-10-11T22:19:20.620Z,94710.00
2022-10-11T22:21:47.488Z,94702.00
2022-10-11T22:24:18.846Z,94692.00
2022-10-11T22:26:48.277Z,94698.00
2022-10-11T22:29:17.424Z,94704.00
2022-10-11T22:31:44.284Z,94695.00
2022-10-11T22:34:11.256Z,94698.00
2022-10-11T22:36:41.225Z,94696.00
2022-10-11T22:39:09.769Z,94701.00
2022-10-11T22:41:37.228Z,94699.00
2022-10-11T22:44:07.189Z,94696.00
2022-10-11T22:46:34.151Z,94693.00
2022-10-11T22:49:00.996Z,94689.00
2022-10-11T22:51:27.791Z,94699.00
2022-10-11T22:53:54.696Z,94688.00
2022-10-11T22:56:24.005Z,94690.00
2022-10-11T22:58:50.861Z,94692.00
2022-10-11T23:01:17.781Z,94690.00
2022-10-11T23:03:53.925Z,94699.00
2022-10-11T23:06:20.887Z,94695.00
2022-10-11T23:08:47.803Z,94688.00
2022-10-11T23:11:18.102Z,94684.00
2022-10-11T23:13:44.945Z,94705.00
2022-10-11T23:16:15.842Z,94699.00
2022-10-11T23:18:42.993Z,94705.00
2022-10-11T23:21:10.123Z,94688.00
2022-10-11T23:23:37.097Z,94705.00
2022-10-11T23:26:10.382Z,94698.00
2022-10-11T23:28:37.877Z,94690.00
2022-10-11T23:31:16.328Z,94693.00
2022-10-11T23:33:45.048Z,94688.00
2022-10-11T23:36:16.053Z,94690.00
2022-10-11T23:38:43.435Z,94692.00
2022-10-11T23:41:10.521Z,94682.00
2022-10-11T23:43:37.941Z,94684.00
2022-10-11T23:46:07.358Z,94703.00
2022-10-11T23:48:34.214Z,94692.00
2022-10-11T23:51:01.061Z,94695.00
2022-10-11T23:53:28.018Z,94691.00
2022-10-11T23:55:54.880Z,94703.00
2022-10-11T23:58:24.414Z,94699.00
